sensor_id;sensor_type;location;lat;lon;timestamp;P1;durP1;ratioP1;P2;durP2;ratioP2
36573;SDS011;22578;42.668;23.232;2024-02-26T00:01:56;7.45;;;3.53;;
36573;SDS011;22578;42.668;23.232;2024-02-26T00:05:16;5.35;;;4.28;;
36573;SDS011;22578;42.668;23.232;2024-02-26T00:08:37;9.18;;;4.57;;
36573;SDS011;22578;42.668;23.232;2024-02-26T00:11:57;4.95;;;3.90;;
36573;SDS011;22578;42.668;23.232;2024-02-26T00:15:19;11.13;;;5.03;;
36573;SDS011;22578;42.668;23.232;2024-02-26T00:18:40;12.63;;;5.00;;
36573;SDS011;22578;42.668;23.232;2024-02-26T00:22:00;7.80;;;4.82;;
36573;SDS011;22578;42.668;23.232;2024-02-26T00:25:21;4.25;;;3.78;;
36573;SDS011;22578;42.668;23.232;2024-02-26T00:28:42;8.07;;;3.78;;
36573;SDS011;22578;42.668;23.232;2024-02-26T00:32:03;5.32;;;4.03;;
36573;SDS011;22578;42.668;23.232;2024-02-26T00:35:24;4.63;;;3.55;;
36573;SDS011;22578;42.668;23.232;2024-02-26T00:38:45;11.48;;;5.53;;
36573;SDS011;22578;42.668;23.232;2024-02-26T00:42:10;4.82;;;3.55;;
36573;SDS011;22578;42.668;23.232;2024-02-26T00:45:31;10.60;;;3.65;;
36573;SDS011;22578;42.668;23.232;2024-02-26T00:48:52;5.07;;;3.78;;
36573;SDS011;22578;42.668;23.232;2024-02-26T00:52:12;5.35;;;3.20;;
36573;SDS011;22578;42.668;23.232;2024-02-26T00:55:33;4.32;;;3.55;;
36573;SDS011;22578;42.668;23.232;2024-02-26T00:58:53;3.92;;;3.05;;
36573;SDS011;22578;42.668;23.232;2024-02-26T01:02:14;9.85;;;4.45;;
36573;SDS011;22578;42.668;23.232;2024-02-26T01:05:34;5.10;;;3.83;;
36573;SDS011;22578;42.668;23.232;2024-02-26T01:08:55;4.57;;;3.10;;
36573;SDS011;22578;42.668;23.232;2024-02-26T01:12:15;11.15;;;3.85;;
36573;SDS011;22578;42.668;23.232;2024-02-26T01:15:36;7.85;;;4.75;;
36573;SDS011;22578;42.668;23.232;2024-02-26T01:18:57;6.15;;;4.32;;
36573;SDS011;22578;42.668;23.232;2024-02-26T01:22:17;5.97;;;3.70;;
36573;SDS011;22578;42.668;23.232;2024-02-26T01:25:38;5.93;;;3.72;;
36573;SDS011;22578;42.668;23.232;2024-02-26T01:28:59;7.47;;;4.07;;
36573;SDS011;22578;42.668;23.232;2024-02-26T01:32:19;5.25;;;4.18;;
36573;SDS011;22578;42.668;23.232;2024-02-26T01:35:40;6.70;;;4.05;;
36573;SDS011;22578;42.668;23.232;2024-02-26T01:39:00;11.00;;;3.75;;
36573;SDS011;22578;42.668;23.232;2024-02-26T01:42:23;4.00;;;3.20;;
36573;SDS011;22578;42.668;23.232;2024-02-26T01:45:44;6.57;;;3.97;;
36573;SDS011;22578;42.668;23.232;2024-02-26T01:49:04;7.03;;;3.90;;
36573;SDS011;22578;42.668;23.232;2024-02-26T01:52:25;10.25;;;4.80;;
36573;SDS011;22578;42.668;23.232;2024-02-26T01:55:46;5.50;;;4.30;;
36573;SDS011;22578;42.668;23.232;2024-02-26T01:59:07;6.40;;;4.47;;
36573;SDS011;22578;42.668;23.232;2024-02-26T02:02:28;13.27;;;4.60;;
36573;SDS011;22578;42.668;23.232;2024-02-26T02:05:49;8.32;;;4.05;;
36573;SDS011;22578;42.668;23.232;2024-02-26T02:09:10;3.70;;;2.80;;
36573;SDS011;22578;42.668;23.232;2024-02-26T02:12:32;11.65;;;4.60;;
36573;SDS011;22578;42.668;23.232;2024-02-26T02:15:54;5.47;;;3.67;;
36573;SDS011;22578;42.668;23.232;2024-02-26T02:19:14;4.10;;;3.70;;
36573;SDS011;22578;42.668;23.232;2024-02-26T02:22:35;8.43;;;5.13;;
36573;SDS011;22578;42.668;23.232;2024-02-26T02:25:56;5.55;;;4.03;;
36573;SDS011;22578;42.668;23.232;2024-02-26T02:29:17;7.03;;;4.78;;
36573;SDS011;22578;42.668;23.232;2024-02-26T02:32:39;6.70;;;4.20;;
36573;SDS011;22578;42.668;23.232;2024-02-26T02:36:01;7.90;;;4.78;;
36573;SDS011;22578;42.668;23.232;2024-02-26T02:39:22;6.78;;;4.03;;
36573;SDS011;22578;42.668;23.232;2024-02-26T02:42:43;5.38;;;3.50;;
36573;SDS011;22578;42.668;23.232;2024-02-26T02:46:04;4.55;;;3.38;;
36573;SDS011;22578;42.668;23.232;2024-02-26T02:49:25;6.55;;;3.67;;
36573;SDS011;22578;42.668;23.232;2024-02-26T02:52:46;5.25;;;3.42;;
36573;SDS011;22578;42.668;23.232;2024-02-26T02:56:07;5.78;;;3.90;;
36573;SDS011;22578;42.668;23.232;2024-02-26T02:59:27;4.70;;;3.85;;
36573;SDS011;22578;42.668;23.232;2024-02-26T03:02:48;8.43;;;4.47;;
36573;SDS011;22578;42.668;23.232;2024-02-26T03:06:09;7.53;;;4.18;;
36573;SDS011;22578;42.668;23.232;2024-02-26T03:09:30;7.18;;;4.68;;
36573;SDS011;22578;42.668;23.232;2024-02-26T03:12:51;4.30;;;3.10;;
36573;SDS011;22578;42.668;23.232;2024-02-26T03:16:11;8.40;;;4.05;;
36573;SDS011;22578;42.668;23.232;2024-02-26T03:19:32;8.75;;;3.58;;
36573;SDS011;22578;42.668;23.232;2024-02-26T03:22:53;4.05;;;3.50;;
36573;SDS011;22578;42.668;23.232;2024-02-26T03:26:14;5.82;;;4.13;;
36573;SDS011;22578;42.668;23.232;2024-02-26T03:29:35;4.75;;;3.85;;
36573;SDS011;22578;42.668;23.232;2024-02-26T03:32:57;4.57;;;4.18;;
36573;SDS011;22578;42.668;23.232;2024-02-26T03:36:17;4.35;;;3.13;;
36573;SDS011;22578;42.668;23.232;2024-02-26T03:39:38;7.78;;;4.30;;
36573;SDS011;22578;42.668;23.232;2024-02-26T03:42:59;3.38;;;2.75;;
36573;SDS011;22578;42.668;23.232;2024-02-26T03:46:19;5.18;;;3.42;;
36573;SDS011;22578;42.668;23.232;2024-02-26T03:49:40;4.85;;;3.20;;
36573;SDS011;22578;42.668;23.232;2024-02-26T03:53:00;4.43;;;3.67;;
36573;SDS011;22578;42.668;23.232;2024-02-26T03:56:21;5.40;;;3.72;;
36573;SDS011;22578;42.668;23.232;2024-02-26T03:59:42;6.10;;;3.95;;
36573;SDS011;22578;42.668;23.232;2024-02-26T04:03:02;6.68;;;2.95;;
36573;SDS011;22578;42.668;23.232;2024-02-26T04:06:23;8.75;;;4.43;;
36573;SDS011;22578;42.668;23.232;2024-02-26T04:09:44;6.32;;;3.50;;
36573;SDS011;22578;42.668;23.232;2024-02-26T04:13:04;8.88;;;2.70;;
36573;SDS011;22578;42.668;23.232;2024-02-26T04:16:25;11.18;;;4.20;;
36573;SDS011;22578;42.668;23.232;2024-02-26T04:19:46;6.07;;;4.40;;
36573;SDS011;22578;42.668;23.232;2024-02-26T04:23:06;8.65;;;2.90;;
36573;SDS011;22578;42.668;23.232;2024-02-26T04:26:27;7.05;;;3.15;;
36573;SDS011;22578;42.668;23.232;2024-02-26T04:29:49;5.20;;;4.15;;
36573;SDS011;22578;42.668;23.232;2024-02-26T04:33:09;11.00;;;5.00;;
36573;SDS011;22578;42.668;23.232;2024-02-26T04:36:30;4.80;;;4.22;;
36573;SDS011;22578;42.668;23.232;2024-02-26T04:39:50;6.78;;;4.38;;
36573;SDS011;22578;42.668;23.232;2024-02-26T04:43:11;6.25;;;3.97;;
36573;SDS011;22578;42.668;23.232;2024-02-26T04:46:31;5.60;;;3.60;;
36573;SDS011;22578;42.668;23.232;2024-02-26T04:49:52;7.85;;;4.40;;
36573;SDS011;22578;42.668;23.232;2024-02-26T04:53:12;7.07;;;5.32;;
36573;SDS011;22578;42.668;23.232;2024-02-26T04:56:33;23.85;;;4.30;;
36573;SDS011;22578;42.668;23.232;2024-02-26T04:59:54;6.15;;;4.25;;
36573;SDS011;22578;42.668;23.232;2024-02-26T05:03:14;4.93;;;4.00;;
36573;SDS011;22578;42.668;23.232;2024-02-26T05:06:36;11.88;;;5.28;;
36573;SDS011;22578;42.668;23.232;2024-02-26T05:09:57;17.58;;;5.68;;
36573;SDS011;22578;42.668;23.232;2024-02-26T05:13:18;13.32;;;5.65;;
36573;SDS011;22578;42.668;23.232;2024-02-26T05:16:39;5.10;;;4.55;;
36573;SDS011;22578;42.668;23.232;2024-02-26T05:20:00;4.55;;;3.90;;
36573;SDS011;22578;42.668;23.232;2024-02-26T05:23:20;5.80;;;3.78;;
36573;SDS011;22578;42.668;23.232;2024-02-26T05:26:41;18.08;;;6.15;;
36573;SDS011;22578;42.668;23.232;2024-02-26T05:30:01;7.45;;;4.60;;
36573;SDS011;22578;42.668;23.232;2024-02-26T05:33:23;5.93;;;3.88;;
36573;SDS011;22578;42.668;23.232;2024-02-26T05:36:44;5.78;;;3.67;;
36573;SDS011;22578;42.668;23.232;2024-02-26T05:40:05;5.68;;;4.20;;
36573;SDS011;22578;42.668;23.232;2024-02-26T05:43:26;6.60;;;4.45;;
36573;SDS011;22578;42.668;23.232;2024-02-26T05:46:47;8.55;;;4.70;;
36573;SDS011;22578;42.668;23.232;2024-02-26T05:50:08;7.55;;;4.25;;
36573;SDS011;22578;42.668;23.232;2024-02-26T05:53:30;6.40;;;3.55;;
36573;SDS011;22578;42.668;23.232;2024-02-26T05:56:51;5.30;;;3.42;;
36573;SDS011;22578;42.668;23.232;2024-02-26T06:00:12;7.03;;;3.72;;
36573;SDS011;22578;42.668;23.232;2024-02-26T06:03:33;8.45;;;5.28;;
36573;SDS011;22578;42.668;23.232;2024-02-26T06:06:54;9.48;;;5.25;;
36573;SDS011;22578;42.668;23.232;2024-02-26T06:10:15;8.02;;;4.43;;
36573;SDS011;22578;42.668;23.232;2024-02-26T06:13:35;14.57;;;5.72;;
36573;SDS011;22578;42.668;23.232;2024-02-26T06:16:56;9.25;;;6.28;;
36573;SDS011;22578;42.668;23.232;2024-02-26T06:20:16;15.60;;;8.35;;
36573;SDS011;22578;42.668;23.232;2024-02-26T06:23:38;6.85;;;5.00;;
36573;SDS011;22578;42.668;23.232;2024-02-26T06:27:01;5.40;;;3.67;;
36573;SDS011;22578;42.668;23.232;2024-02-26T06:30:21;4.70;;;3.90;;
36573;SDS011;22578;42.668;23.232;2024-02-26T06:33:42;5.35;;;3.72;;
36573;SDS011;22578;42.668;23.232;2024-02-26T06:37:02;4.90;;;3.78;;
36573;SDS011;22578;42.668;23.232;2024-02-26T06:40:23;16.27;;;4.85;;
36573;SDS011;22578;42.668;23.232;2024-02-26T06:43:45;6.20;;;4.43;;
36573;SDS011;22578;42.668;23.232;2024-02-26T06:47:05;7.78;;;5.22;;
36573;SDS011;22578;42.668;23.232;2024-02-26T06:50:26;7.05;;;3.65;;
36573;SDS011;22578;42.668;23.232;2024-02-26T06:53:47;6.72;;;4.93;;
36573;SDS011;22578;42.668;23.232;2024-02-26T06:57:08;8.45;;;5.13;;
36573;SDS011;22578;42.668;23.232;2024-02-26T07:00:28;7.35;;;4.95;;
36573;SDS011;22578;42.668;23.232;2024-02-26T07:03:49;5.53;;;3.85;;
36573;SDS011;22578;42.668;23.232;2024-02-26T07:07:09;9.18;;;4.80;;
36573;SDS011;22578;42.668;23.232;2024-02-26T07:10:30;11.02;;;6.10;;
36573;SDS011;22578;42.668;23.232;2024-02-26T07:13:51;8.48;;;5.75;;
36573;SDS011;22578;42.668;23.232;2024-02-26T07:17:11;12.43;;;5.85;;
36573;SDS011;22578;42.668;23.232;2024-02-26T07:20:32;10.82;;;5.28;;
36573;SDS011;22578;42.668;23.232;2024-02-26T07:23:53;13.80;;;6.60;;
36573;SDS011;22578;42.668;23.232;2024-02-26T07:27:13;9.27;;;5.15;;
36573;SDS011;22578;42.668;23.232;2024-02-26T07:30:34;6.90;;;4.97;;
36573;SDS011;22578;42.668;23.232;2024-02-26T07:33:54;9.57;;;5.35;;
36573;SDS011;22578;42.668;23.232;2024-02-26T07:37:15;9.20;;;5.72;;
36573;SDS011;22578;42.668;23.232;2024-02-26T07:40:35;9.55;;;4.90;;
36573;SDS011;22578;42.668;23.232;2024-02-26T07:43:56;15.40;;;8.65;;
36573;SDS011;22578;42.668;23.232;2024-02-26T07:47:17;11.80;;;6.75;;
36573;SDS011;22578;42.668;23.232;2024-02-26T07:50:37;10.73;;;6.45;;
36573;SDS011;22578;42.668;23.232;2024-02-26T07:53:58;7.30;;;4.47;;
36573;SDS011;22578;42.668;23.232;2024-02-26T07:57:18;6.60;;;4.78;;
36573;SDS011;22578;42.668;23.232;2024-02-26T08:00:41;9.25;;;4.72;;
36573;SDS011;22578;42.668;23.232;2024-02-26T08:04:02;8.35;;;4.63;;
36573;SDS011;22578;42.668;23.232;2024-02-26T08:07:22;6.28;;;4.20;;
36573;SDS011;22578;42.668;23.232;2024-02-26T08:10:43;6.85;;;4.45;;
36573;SDS011;22578;42.668;23.232;2024-02-26T08:14:04;12.05;;;6.15;;
36573;SDS011;22578;42.668;23.232;2024-02-26T08:17:25;7.07;;;4.40;;
36573;SDS011;22578;42.668;23.232;2024-02-26T08:20:45;7.80;;;4.72;;
36573;SDS011;22578;42.668;23.232;2024-02-26T08:24:06;8.32;;;4.65;;
36573;SDS011;22578;42.668;23.232;2024-02-26T08:27:27;5.60;;;4.28;;
36573;SDS011;22578;42.668;23.232;2024-02-26T08:30:47;9.52;;;5.38;;
36573;SDS011;22578;42.668;23.232;2024-02-26T08:34:08;8.45;;;4.88;;
36573;SDS011;22578;42.668;23.232;2024-02-26T08:37:29;7.38;;;4.88;;
36573;SDS011;22578;42.668;23.232;2024-02-26T08:40:50;9.70;;;5.07;;
36573;SDS011;22578;42.668;23.232;2024-02-26T08:44:10;9.13;;;5.35;;
36573;SDS011;22578;42.668;23.232;2024-02-26T08:47:31;9.25;;;5.82;;
36573;SDS011;22578;42.668;23.232;2024-02-26T08:50:52;11.25;;;5.38;;
36573;SDS011;22578;42.668;23.232;2024-02-26T08:54:13;8.77;;;5.30;;
36573;SDS011;22578;42.668;23.232;2024-02-26T08:57:34;5.10;;;4.50;;
36573;SDS011;22578;42.668;23.232;2024-02-26T09:00:55;9.45;;;6.20;;
36573;SDS011;22578;42.668;23.232;2024-02-26T09:04:15;7.72;;;5.57;;
36573;SDS011;22578;42.668;23.232;2024-02-26T09:07:36;23.55;;;5.72;;
36573;SDS011;22578;42.668;23.232;2024-02-26T09:10:56;7.55;;;5.63;;
36573;SDS011;22578;42.668;23.232;2024-02-26T09:14:17;11.15;;;5.72;;
36573;SDS011;22578;42.668;23.232;2024-02-26T09:17:38;9.50;;;5.82;;
36573;SDS011;22578;42.668;23.232;2024-02-26T09:20:59;7.18;;;4.70;;
36573;SDS011;22578;42.668;23.232;2024-02-26T09:24:19;14.10;;;7.05;;
36573;SDS011;22578;42.668;23.232;2024-02-26T09:27:44;10.02;;;5.63;;
36573;SDS011;22578;42.668;23.232;2024-02-26T09:31:04;14.13;;;8.43;;
36573;SDS011;22578;42.668;23.232;2024-02-26T09:34:26;16.35;;;6.38;;
36573;SDS011;22578;42.668;23.232;2024-02-26T09:37:47;8.27;;;5.07;;
36573;SDS011;22578;42.668;23.232;2024-02-26T09:41:12;11.10;;;6.03;;
36573;SDS011;22578;42.668;23.232;2024-02-26T09:44:34;6.38;;;4.53;;
36573;SDS011;22578;42.668;23.232;2024-02-26T09:47:58;10.85;;;6.03;;
36573;SDS011;22578;42.668;23.232;2024-02-26T09:51:18;9.00;;;4.47;;
36573;SDS011;22578;42.668;23.232;2024-02-26T09:54:39;10.15;;;5.07;;
36573;SDS011;22578;42.668;23.232;2024-02-26T09:58:00;7.80;;;4.32;;
36573;SDS011;22578;42.668;23.232;2024-02-26T10:01:22;5.45;;;3.97;;
36573;SDS011;22578;42.668;23.232;2024-02-26T10:04:44;5.53;;;3.90;;
36573;SDS011;22578;42.668;23.232;2024-02-26T10:08:08;6.38;;;4.68;;
36573;SDS011;22578;42.668;23.232;2024-02-26T10:11:29;8.02;;;4.18;;
36573;SDS011;22578;42.668;23.232;2024-02-26T10:14:51;5.03;;;4.20;;
36573;SDS011;22578;42.668;23.232;2024-02-26T10:18:12;12.30;;;7.30;;
36573;SDS011;22578;42.668;23.232;2024-02-26T10:21:32;7.60;;;3.58;;
36573;SDS011;22578;42.668;23.232;2024-02-26T10:24:53;3.50;;;2.80;;
36573;SDS011;22578;42.668;23.232;2024-02-26T10:28:14;3.13;;;2.25;;
36573;SDS011;22578;42.668;23.232;2024-02-26T10:31:34;1.95;;;1.73;;
36573;SDS011;22578;42.668;23.232;2024-02-26T10:34:55;2.38;;;1.85;;
36573;SDS011;22578;42.668;23.232;2024-02-26T10:38:16;2.75;;;2.45;;
36573;SDS011;22578;42.668;23.232;2024-02-26T10:41:41;2.88;;;2.20;;
36573;SDS011;22578;42.668;23.232;2024-02-26T10:45:02;2.97;;;2.30;;
36573;SDS011;22578;42.668;23.232;2024-02-26T10:48:23;3.25;;;2.15;;
36573;SDS011;22578;42.668;23.232;2024-02-26T10:51:44;2.60;;;2.10;;
36573;SDS011;22578;42.668;23.232;2024-02-26T10:55:06;2.13;;;1.98;;
36573;SDS011;22578;42.668;23.232;2024-02-26T10:58:27;2.92;;;1.88;;
36573;SDS011;22578;42.668;23.232;2024-02-26T11:01:49;4.55;;;3.13;;
36573;SDS011;22578;42.668;23.232;2024-02-26T11:05:10;2.67;;;2.08;;
36573;SDS011;22578;42.668;23.232;2024-02-26T11:08:31;3.22;;;2.70;;
36573;SDS011;22578;42.668;23.232;2024-02-26T11:11:52;2.63;;;2.42;;
36573;SDS011;22578;42.668;23.232;2024-02-26T11:15:15;3.13;;;2.40;;
36573;SDS011;22578;42.668;23.232;2024-02-26T11:18:35;3.47;;;2.40;;
36573;SDS011;22578;42.668;23.232;2024-02-26T11:21:58;6.43;;;2.30;;
36573;SDS011;22578;42.668;23.232;2024-02-26T11:25:21;3.17;;;2.10;;
36573;SDS011;22578;42.668;23.232;2024-02-26T11:28:42;3.70;;;2.17;;
36573;SDS011;22578;42.668;23.232;2024-02-26T11:32:03;2.90;;;2.08;;
36573;SDS011;22578;42.668;23.232;2024-02-26T11:35:24;2.30;;;2.10;;
36573;SDS011;22578;42.668;23.232;2024-02-26T11:38:45;2.72;;;1.98;;
36573;SDS011;22578;42.668;23.232;2024-02-26T11:42:09;2.35;;;2.03;;
36573;SDS011;22578;42.668;23.232;2024-02-26T11:49:03;3.22;;;2.20;;
36573;SDS011;22578;42.668;23.232;2024-02-26T11:53:17;2.10;;;1.90;;
36573;SDS011;22578;42.668;23.232;2024-02-26T11:56:51;2.28;;;2.00;;
36573;SDS011;22578;42.668;23.232;2024-02-26T12:00:14;4.20;;;2.38;;
36573;SDS011;22578;42.668;23.232;2024-02-26T12:03:42;4.65;;;2.05;;
36573;SDS011;22578;42.668;23.232;2024-02-26T12:07:04;3.65;;;2.72;;
36573;SDS011;22578;42.668;23.232;2024-02-26T12:10:32;3.67;;;2.78;;
36573;SDS011;22578;42.668;23.232;2024-02-26T12:13:58;2.40;;;2.20;;
36573;SDS011;22578;42.668;23.232;2024-02-26T12:17:22;2.65;;;2.10;;
36573;SDS011;22578;42.668;23.232;2024-02-26T12:20:44;2.53;;;2.22;;
36573;SDS011;22578;42.668;23.232;2024-02-26T12:24:11;2.47;;;2.00;;
36573;SDS011;22578;42.668;23.232;2024-02-26T12:27:32;1.88;;;1.70;;
36573;SDS011;22578;42.668;23.232;2024-02-26T12:30:53;1.48;;;1.38;;
36573;SDS011;22578;42.668;23.232;2024-02-26T12:34:13;3.28;;;2.05;;
36573;SDS011;22578;42.668;23.232;2024-02-26T12:37:36;2.33;;;2.15;;
36573;SDS011;22578;42.668;23.232;2024-02-26T12:40:57;7.05;;;2.25;;
36573;SDS011;22578;42.668;23.232;2024-02-26T12:44:18;3.13;;;2.53;;
36573;SDS011;22578;42.668;23.232;2024-02-26T12:47:45;2.60;;;2.08;;
36573;SDS011;22578;42.668;23.232;2024-02-26T12:51:06;2.30;;;2.10;;
36573;SDS011;22578;42.668;23.232;2024-02-26T12:54:28;2.63;;;2.05;;
36573;SDS011;22578;42.668;23.232;2024-02-26T12:57:52;3.05;;;2.17;;
36573;SDS011;22578;42.668;23.232;2024-02-26T13:01:17;2.28;;;1.90;;
36573;SDS011;22578;42.668;23.232;2024-02-26T13:04:40;2.58;;;2.05;;
36573;SDS011;22578;42.668;23.232;2024-02-26T13:08:01;2.70;;;1.85;;
36573;SDS011;22578;42.668;23.232;2024-02-26T13:11:22;2.40;;;1.80;;
36573;SDS011;22578;42.668;23.232;2024-02-26T13:14:42;3.33;;;1.75;;
36573;SDS011;22578;42.668;23.232;2024-02-26T13:18:12;2.53;;;2.03;;
36573;SDS011;22578;42.668;23.232;2024-02-26T13:21:34;5.70;;;2.30;;
36573;SDS011;22578;42.668;23.232;2024-02-26T13:24:56;3.45;;;1.90;;
36573;SDS011;22578;42.668;23.232;2024-02-26T13:28:17;2.38;;;1.63;;
36573;SDS011;22578;42.668;23.232;2024-02-26T13:31:44;3.90;;;2.93;;
36573;SDS011;22578;42.668;23.232;2024-02-26T13:35:07;2.58;;;1.83;;
36573;SDS011;22578;42.668;23.232;2024-02-26T13:38:29;2.08;;;1.83;;
36573;SDS011;22578;42.668;23.232;2024-02-26T13:41:49;2.30;;;1.83;;
36573;SDS011;22578;42.668;23.232;2024-02-26T13:45:10;3.50;;;3.17;;
36573;SDS011;22578;42.668;23.232;2024-02-26T13:48:31;1.88;;;1.70;;
36573;SDS011;22578;42.668;23.232;2024-02-26T13:51:52;2.42;;;2.03;;
36573;SDS011;22578;42.668;23.232;2024-02-26T13:55:14;1.85;;;1.70;;
36573;SDS011;22578;42.668;23.232;2024-02-26T13:58:35;3.42;;;2.33;;
36573;SDS011;22578;42.668;23.232;2024-02-26T14:01:55;1.48;;;1.38;;
36573;SDS011;22578;42.668;23.232;2024-02-26T14:05:16;1.80;;;1.58;;
36573;SDS011;22578;42.668;23.232;2024-02-26T14:08:37;6.20;;;1.95;;
36573;SDS011;22578;42.668;23.232;2024-02-26T14:12:00;1.65;;;1.55;;
36573;SDS011;22578;42.668;23.232;2024-02-26T14:15:21;3.05;;;2.20;;
36573;SDS011;22578;42.668;23.232;2024-02-26T14:18:42;3.35;;;2.17;;
36573;SDS011;22578;42.668;23.232;2024-02-26T14:22:04;4.03;;;2.47;;
36573;SDS011;22578;42.668;23.232;2024-02-26T14:25:25;5.78;;;2.35;;
36573;SDS011;22578;42.668;23.232;2024-02-26T14:28:45;1.98;;;1.73;;
36573;SDS011;22578;42.668;23.232;2024-02-26T14:32:06;3.17;;;1.88;;
36573;SDS011;22578;42.668;23.232;2024-02-26T14:35:27;1.65;;;1.40;;
36573;SDS011;22578;42.668;23.232;2024-02-26T14:38:48;1.70;;;1.60;;
36573;SDS011;22578;42.668;23.232;2024-02-26T14:42:08;2.97;;;2.35;;
36573;SDS011;22578;42.668;23.232;2024-02-26T14:45:29;2.03;;;1.83;;
36573;SDS011;22578;42.668;23.232;2024-02-26T14:48:50;1.65;;;1.55;;
36573;SDS011;22578;42.668;23.232;2024-02-26T14:52:10;6.07;;;1.85;;
36573;SDS011;22578;42.668;23.232;2024-02-26T14:55:31;2.47;;;1.73;;
36573;SDS011;22578;42.668;23.232;2024-02-26T14:58:52;6.55;;;2.00;;
36573;SDS011;22578;42.668;23.232;2024-02-26T15:02:13;2.83;;;2.33;;
36573;SDS011;22578;42.668;23.232;2024-02-26T15:05:34;2.53;;;1.83;;
36573;SDS011;22578;42.668;23.232;2024-02-26T15:51:05;1.95;;;1.70;;
36573;SDS011;22578;42.668;23.232;2024-02-26T15:54:25;1.48;;;1.38;;
36573;SDS011;22578;42.668;23.232;2024-02-26T15:57:47;4.63;;;1.98;;
36573;SDS011;22578;42.668;23.232;2024-02-26T16:01:07;3.22;;;2.10;;
36573;SDS011;22578;42.668;23.232;2024-02-26T16:04:28;1.98;;;1.65;;
36573;SDS011;22578;42.668;23.232;2024-02-26T16:11:11;5.25;;;1.77;;
36573;SDS011;22578;42.668;23.232;2024-02-26T16:18:07;2.73;;;2.30;;
36573;SDS011;22578;42.668;23.232;2024-02-26T16:21:28;3.20;;;2.15;;
36573;SDS011;22578;42.668;23.232;2024-02-26T16:24:48;9.00;;;2.70;;
36573;SDS011;22578;42.668;23.232;2024-02-26T16:28:09;6.45;;;2.90;;
36573;SDS011;22578;42.668;23.232;2024-02-26T16:31:29;2.65;;;2.25;;
36573;SDS011;22578;42.668;23.232;2024-02-26T16:34:50;5.80;;;2.88;;
36573;SDS011;22578;42.668;23.232;2024-02-26T16:38:11;3.55;;;2.40;;
36573;SDS011;22578;42.668;23.232;2024-02-26T16:41:34;3.80;;;2.28;;
36573;SDS011;22578;42.668;23.232;2024-02-26T16:44:55;13.63;;;10.32;;
36573;SDS011;22578;42.668;23.232;2024-02-26T16:48:16;13.63;;;6.25;;
36573;SDS011;22578;42.668;23.232;2024-02-26T16:51:38;7.72;;;4.75;;
36573;SDS011;22578;42.668;23.232;2024-02-26T16:54:59;13.98;;;3.45;;
36573;SDS011;22578;42.668;23.232;2024-02-26T16:58:19;3.47;;;2.53;;
36573;SDS011;22578;42.668;23.232;2024-02-26T17:01:47;3.92;;;2.53;;
36573;SDS011;22578;42.668;23.232;2024-02-26T17:05:09;4.38;;;2.90;;
36573;SDS011;22578;42.668;23.232;2024-02-26T17:08:30;2.30;;;1.83;;
36573;SDS011;22578;42.668;23.232;2024-02-26T17:11:53;9.73;;;2.75;;
36573;SDS011;22578;42.668;23.232;2024-02-26T17:15:14;3.58;;;2.83;;
36573;SDS011;22578;42.668;23.232;2024-02-26T17:18:35;11.00;;;2.80;;
36573;SDS011;22578;42.668;23.232;2024-02-26T17:21:55;3.13;;;2.47;;
36573;SDS011;22578;42.668;23.232;2024-02-26T17:25:17;5.65;;;2.72;;
36573;SDS011;22578;42.668;23.232;2024-02-26T17:28:38;4.13;;;2.78;;
36573;SDS011;22578;42.668;23.232;2024-02-26T17:32:02;4.85;;;2.55;;
36573;SDS011;22578;42.668;23.232;2024-02-26T17:35:24;3.22;;;2.40;;
36573;SDS011;22578;42.668;23.232;2024-02-26T17:38:45;6.22;;;3.08;;
36573;SDS011;22578;42.668;23.232;2024-02-26T17:42:08;6.72;;;3.75;;
36573;SDS011;22578;42.668;23.232;2024-02-26T17:45:28;5.80;;;3.58;;
36573;SDS011;22578;42.668;23.232;2024-02-26T17:48:49;5.43;;;3.80;;
36573;SDS011;22578;42.668;23.232;2024-02-26T17:52:10;5.13;;;3.28;;
36573;SDS011;22578;42.668;23.232;2024-02-26T17:55:30;4.15;;;2.53;;
36573;SDS011;22578;42.668;23.232;2024-02-26T17:58:51;5.80;;;3.42;;
36573;SDS011;22578;42.668;23.232;2024-02-26T18:02:11;3.72;;;2.83;;
36573;SDS011;22578;42.668;23.232;2024-02-26T18:05:32;7.13;;;3.38;;
36573;SDS011;22578;42.668;23.232;2024-02-26T18:08:52;4.18;;;2.45;;
36573;SDS011;22578;42.668;23.232;2024-02-26T18:12:13;3.90;;;2.47;;
36573;SDS011;22578;42.668;23.232;2024-02-26T18:15:34;5.15;;;2.78;;
36573;SDS011;22578;42.668;23.232;2024-02-26T18:18:54;5.38;;;3.22;;
36573;SDS011;22578;42.668;23.232;2024-02-26T18:22:15;3.67;;;3.08;;
36573;SDS011;22578;42.668;23.232;2024-02-26T18:25:35;4.10;;;2.80;;
36573;SDS011;22578;42.668;23.232;2024-02-26T18:28:56;6.80;;;3.20;;
36573;SDS011;22578;42.668;23.232;2024-02-26T18:32:16;3.70;;;3.30;;
36573;SDS011;22578;42.668;23.232;2024-02-26T18:35:37;4.55;;;3.65;;
36573;SDS011;22578;42.668;23.232;2024-02-26T18:38:57;5.78;;;3.92;;
36573;SDS011;22578;42.668;23.232;2024-02-26T18:42:18;3.97;;;2.88;;
36573;SDS011;22578;42.668;23.232;2024-02-26T18:45:39;5.32;;;2.72;;
36573;SDS011;22578;42.668;23.232;2024-02-26T18:49:02;2.55;;;2.20;;
36573;SDS011;22578;42.668;23.232;2024-02-26T18:52:23;2.70;;;2.42;;
36573;SDS011;22578;42.668;23.232;2024-02-26T18:55:43;2.38;;;2.17;;
36573;SDS011;22578;42.668;23.232;2024-02-26T18:59:05;3.13;;;2.83;;
36573;SDS011;22578;42.668;23.232;2024-02-26T19:02:25;4.32;;;2.55;;
36573;SDS011;22578;42.668;23.232;2024-02-26T19:05:48;4.55;;;2.45;;
36573;SDS011;22578;42.668;23.232;2024-02-26T19:09:09;2.90;;;2.53;;
36573;SDS011;22578;42.668;23.232;2024-02-26T19:12:29;2.33;;;1.88;;
36573;SDS011;22578;42.668;23.232;2024-02-26T19:15:50;2.33;;;2.05;;
36573;SDS011;22578;42.668;23.232;2024-02-26T19:19:11;4.47;;;3.00;;
36573;SDS011;22578;42.668;23.232;2024-02-26T19:22:31;3.38;;;2.80;;
36573;SDS011;22578;42.668;23.232;2024-02-26T19:25:52;2.78;;;1.95;;
36573;SDS011;22578;42.668;23.232;2024-02-26T19:29:12;2.75;;;2.33;;
36573;SDS011;22578;42.668;23.232;2024-02-26T19:32:33;2.72;;;2.40;;
36573;SDS011;22578;42.668;23.232;2024-02-26T19:35:54;2.38;;;2.03;;
36573;SDS011;22578;42.668;23.232;2024-02-26T19:39:14;3.67;;;2.30;;
36573;SDS011;22578;42.668;23.232;2024-02-26T19:42:35;2.33;;;2.15;;
36573;SDS011;22578;42.668;23.232;2024-02-26T19:45:56;3.90;;;2.17;;
36573;SDS011;22578;42.668;23.232;2024-02-26T19:49:16;3.25;;;2.45;;
36573;SDS011;22578;42.668;23.232;2024-02-26T19:52:37;3.30;;;2.30;;
36573;SDS011;22578;42.668;23.232;2024-02-26T19:55:57;2.60;;;2.05;;
36573;SDS011;22578;42.668;23.232;2024-02-26T19:59:18;4.40;;;3.17;;
36573;SDS011;22578;42.668;23.232;2024-02-26T20:02:39;3.05;;;2.40;;
36573;SDS011;22578;42.668;23.232;2024-02-26T20:06:00;3.78;;;3.15;;
36573;SDS011;22578;42.668;23.232;2024-02-26T20:09:21;9.98;;;4.65;;
36573;SDS011;22578;42.668;23.232;2024-02-26T20:12:46;4.45;;;3.35;;
36573;SDS011;22578;42.668;23.232;2024-02-26T20:16:06;3.33;;;2.72;;
36573;SDS011;22578;42.668;23.232;2024-02-26T20:19:27;4.95;;;2.92;;
36573;SDS011;22578;42.668;23.232;2024-02-26T20:22:48;4.10;;;2.67;;
36573;SDS011;22578;42.668;23.232;2024-02-26T20:26:09;2.55;;;2.35;;
36573;SDS011;22578;42.668;23.232;2024-02-26T20:29:29;3.08;;;2.78;;
36573;SDS011;22578;42.668;23.232;2024-02-26T20:32:50;7.93;;;4.32;;
36573;SDS011;22578;42.668;23.232;2024-02-26T20:36:11;5.85;;;3.63;;
36573;SDS011;22578;42.668;23.232;2024-02-26T20:39:32;7.05;;;2.90;;
36573;SDS011;22578;42.668;23.232;2024-02-26T20:42:53;4.65;;;3.08;;
36573;SDS011;22578;42.668;23.232;2024-02-26T20:46:14;5.25;;;3.13;;